Time;durP1;ratioP1;P1;durP2;ratioP2;P2;SDS_P1;SDS_P2;PMS_P1;PMS_P2;Temp;Humidity;BMP_temperature;BMP_pressure;BME280_temperature;BME280_humidity;BME280_pressure;Samples;Min_cycle;Max_cycle;Signal;HPM_P1;HPM_P2
2023/07/30 00:00:22;;;;;;;;;4.67;2.00;;;;;22.21;59.13;100816.56;5037904;28;45360;-66
2023/07/30 00:02:48;;;;;;;;;3.00;2.75;;;;;22.20;58.72;100829.00;5036992;28;45339;-66
2023/07/30 00:05:13;;;;;;;;;4.00;2.00;;;;;22.20;59.12;100836.13;5037081;28;46462;-66
2023/07/30 00:07:38;;;;;;;;;2.00;2.00;;;;;22.21;58.95;100843.22;5031669;28;45917;-66
2023/07/30 00:10:05;;;;;;;;;4.00;2.33;;;;;22.20;58.58;100854.78;5015468;28;45565;-66
2023/07/30 00:12:30;;;;;;;;;0.00;0.00;;;;;22.20;58.56;100849.44;5020222;28;45592;-66
2023/07/30 00:14:56;;;;;;;;;2.33;2.00;;;;;22.14;58.52;100857.72;5020944;28;45240;-65
2023/07/30 00:17:22;;;;;;;;;3.33;3.00;;;;;22.05;57.84;100850.16;5013595;28;45398;-66
2023/07/30 00:19:47;;;;;;;;;2.33;2.00;;;;;22.02;57.54;100846.69;5000943;28;45993;-66
2023/07/30 00:22:13;;;;;;;;;1.00;1.00;;;;;22.11;57.25;100858.72;5017158;28;46093;-66
2023/07/30 00:24:38;;;;;;;;;3.33;1.00;;;;;22.05;57.18;100855.47;5008729;28;45446;-66
2023/07/30 00:27:04;;;;;;;;;1.67;1.67;;;;;22.00;57.42;100863.69;5026190;28;45556;-67
2023/07/30 00:29:29;;;;;;;;;3.00;2.00;;;;;21.92;57.11;100858.66;5018789;28;45395;-65
2023/07/30 00:31:55;;;;;;;;;1.67;1.00;;;;;21.89;56.71;100850.81;5023062;28;45407;-66
2023/07/30 00:34:21;;;;;;;;;1.33;1.33;;;;;21.83;56.50;100850.19;5019710;28;45856;-65
2023/07/30 00:36:46;;;;;;;;;1.00;1.00;;;;;21.76;56.59;100849.63;5017798;28;45403;-64
2023/07/30 00:39:12;;;;;;;;;2.00;2.00;;;;;21.72;56.89;100848.84;5021186;28;45396;-69
2023/07/30 00:41:37;;;;;;;;;1.00;1.00;;;;;21.76;56.85;100863.81;5016394;28;46050;-66
2023/07/30 00:44:04;;;;;;;;;2.00;1.00;;;;;21.73;57.10;100860.38;5033176;28;45256;-67
2023/07/30 00:46:30;;;;;;;;;2.00;2.00;;;;;21.71;56.94;100859.56;5036538;28;45359;-67
2023/07/30 00:48:56;;;;;;;;;3.33;2.00;;;;;21.64;57.06;100855.44;5037084;28;45748;-66
2023/07/30 00:51:22;;;;;;;;;1.00;1.00;;;;;21.55;57.06;100854.91;5036649;28;45329;-66
2023/07/30 00:53:48;;;;;;;;;3.33;1.00;;;;;21.55;56.35;100862.91;5036017;28;45617;-65
2023/07/30 00:56:15;;;;;;;;;1.67;1.00;;;;;21.56;56.41;100879.75;5036516;28;45493;-66
2023/07/30 00:58:41;;;;;;;;;1.67;1.00;;;;;21.49;56.41;100873.81;5018665;28;45601;-66
2023/07/30 01:01:06;;;;;;;;;1.00;1.00;;;;;21.51;56.17;100887.06;5036171;28;45944;-68
2023/07/30 01:03:32;;;;;;;;;1.00;1.00;;;;;21.50;56.04;100885.34;5039402;28;45272;-66
2023/07/30 01:05:59;;;;;;;;;1.00;0.33;;;;;21.43;55.86;100891.84;5039487;28;45458;-67
2023/07/30 01:08:24;;;;;;;;;2.67;0.67;;;;;21.41;55.97;100889.25;5039898;28;45391;-67
2023/07/30 01:10:51;;;;;;;;;1.00;1.00;;;;;21.43;55.79;100902.50;5022014;28;45987;-65
2023/07/30 01:13:17;;;;;;;;;1.33;1.33;;;;;21.36;55.80;100896.53;5041539;28;45551;-67
2023/07/30 01:15:43;;;;;;;;;1.00;1.00;;;;;21.30;55.91;100892.31;5022962;28;45504;-66
2023/07/30 01:18:09;;;;;;;;;3.00;1.00;;;;;21.37;56.83;100911.56;5039577;28;45572;-67
2023/07/30 01:20:34;;;;;;;;;1.00;1.00;;;;;21.36;56.42;100915.19;5039478;28;45538;-66
2023/07/30 01:23:00;;;;;;;;;1.00;1.00;;;;;21.33;56.09;100909.97;5039592;28;45508;-68
2023/07/30 01:25:30;;;;;;;;;2.67;2.00;;;;;21.31;56.22;100910.03;5022618;28;45474;-68
2023/07/30 01:28:01;;;;;;;;;2.00;1.00;;;;;21.17;55.94;100899.91;5038284;28;45680;-67
2023/07/30 01:30:30;;;;;;;;;2.00;2.00;;;;;21.23;55.91;100919.25;5039590;28;45481;-66
2023/07/30 01:33:00;;;;;;;;;2.00;0.33;;;;;21.18;55.70;100924.75;5033775;28;45662;-66
2023/07/30 01:35:28;;;;;;;;;0.33;0.33;;;;;21.16;55.39;100918.63;5012257;28;45579;-65
2023/07/30 01:37:57;;;;;;;;;0.00;0.00;;;;;21.16;55.77;100924.81;5032306;28;45275;-66
2023/07/30 01:40:23;;;;;;;;;1.33;1.00;;;;;21.13;55.65;100940.91;5017220;28;45592;-67
2023/07/30 01:42:49;;;;;;;;;3.00;1.33;;;;;21.09;55.21;100933.97;5040308;28;45497;-65
2023/07/30 01:45:15;;;;;;;;;1.00;1.00;;;;;21.12;55.32;100944.53;5022908;28;45509;-66
2023/07/30 01:47:40;;;;;;;;;2.00;0.67;;;;;21.10;55.40;100957.03;5020569;28;45629;-68
2023/07/30 01:50:06;;;;;;;;;2.67;1.00;;;;;21.01;55.82;100946.72;5018771;28;45750;-66
2023/07/30 01:52:32;;;;;;;;;1.33;1.00;;;;;21.02;55.76;100960.88;5035763;28;45539;-67
2023/07/30 01:54:58;;;;;;;;;4.00;1.00;;;;;21.01;55.99;100964.50;5039019;28;45436;-67
2023/07/30 01:57:24;;;;;;;;;2.00;2.00;;;;;20.83;56.06;100934.94;5039407;28;45487;-67
2023/07/30 01:59:50;;;;;;;;;1.00;1.00;;;;;20.98;56.12;100960.16;5039858;28;46062;-67
2023/07/30 02:02:16;;;;;;;;;1.33;1.00;;;;;20.95;56.07;100970.91;5021346;28;45449;-68
2023/07/30 02:04:41;;;;;;;;;1.33;1.33;;;;;20.95;56.52;100973.56;5026298;28;45434;-67
2023/07/30 02:07:07;;;;;;;;;0.00;0.00;;;;;20.93;56.73;100965.66;5039298;28;45382;-67
2023/07/30 02:09:32;;;;;;;;;3.00;1.00;;;;;20.90;56.32;100964.88;5039112;28;45369;-66
2023/07/30 02:11:58;;;;;;;;;3.00;1.00;;;;;20.84;56.50;100957.16;5040244;28;45512;-67
2023/07/30 02:14:24;;;;;;;;;4.00;2.00;;;;;20.85;56.57;100966.84;5038818;28;45432;-68
2023/07/30 02:16:49;;;;;;;;;1.33;1.33;;;;;20.70;56.65;100957.66;5039228;28;45492;-69
2023/07/30 02:19:15;;;;;;;;;2.00;1.00;;;;;20.69;57.26;100950.56;5039682;28;45583;-71
2023/07/30 02:21:42;;;;;;;;;2.33;1.00;;;;;20.79;56.91;100967.09;5039696;28;45595;-70
2023/07/30 02:24:11;;;;;;;;;2.00;2.00;;;;;20.77;57.01;100968.94;5039155;28;45635;-71
2023/07/30 02:26:38;;;;;;;;;3.33;1.00;;;;;20.75;57.15;100976.97;5038892;28;45422;-72
2023/07/30 02:29:04;;;;;;;;;2.00;1.00;;;;;20.74;57.03;100973.44;5039250;28;46308;-70
2023/07/30 02:31:30;;;;;;;;;1.33;1.33;;;;;20.79;57.12;100988.38;5039212;28;45529;-67
2023/07/30 02:33:56;;;;;;;;;3.00;2.00;;;;;20.78;57.94;100986.63;5038330;28;45463;-68
2023/07/30 02:36:21;;;;;;;;;2.33;1.33;;;;;20.70;57.49;100977.13;5038466;28;45422;-71
2023/07/30 02:38:47;;;;;;;;;2.00;2.00;;;;;20.74;57.38;100986.75;5030259;28;46136;-67
2023/07/30 02:41:13;;;;;;;;;1.00;1.00;;;;;20.73;57.67;100992.13;5036693;28;45466;-65
2023/07/30 02:43:38;;;;;;;;;3.00;2.00;;;;;20.67;57.43;100984.38;5038631;28;45488;-65
2023/07/30 02:46:04;;;;;;;;;4.00;1.33;;;;;20.61;57.25;100973.94;5039081;28;45444;-65
2023/07/30 02:48:30;;;;;;;;;3.33;2.00;;;;;20.70;57.62;100989.59;5038382;28;45559;-66
2023/07/30 02:50:55;;;;;;;;;2.00;1.67;;;;;20.69;57.34;100983.41;5038084;28;45411;-65
2023/07/30 02:53:21;;;;;;;;;1.00;1.00;;;;;20.68;57.62;100981.63;5019546;28;45591;-66
2023/07/30 02:55:47;;;;;;;;;2.00;2.00;;;;;20.67;57.38;100987.91;5038303;28;45374;-69
2023/07/30 02:58:12;;;;;;;;;5.67;1.00;;;;;20.59;57.41;100966.00;5038150;28;45542;-65
2023/07/30 03:00:38;;;;;;;;;2.67;1.67;;;;;20.63;57.46;100974.75;5038493;28;45486;-72
2023/07/30 03:03:04;;;;;;;;;3.33;1.00;;;;;20.62;57.54;100989.88;5038982;28;45506;-70
2023/07/30 03:05:30;;;;;;;;;3.33;1.00;;;;;20.50;57.28;100975.16;5038330;28;45411;-64
2023/07/30 03:07:56;;;;;;;;;2.67;2.67;;;;;20.58;57.53;100990.03;5038736;28;46308;-64
2023/07/30 03:10:21;;;;;;;;;2.33;1.67;;;;;20.56;57.39;100982.09;5038436;28;45459;-65
2023/07/30 03:12:47;;;;;;;;;2.33;1.00;;;;;20.51;57.55;100984.00;5038100;28;45332;-65
2023/07/30 03:15:13;;;;;;;;;2.33;1.33;;;;;20.55;57.69;100996.28;5038256;28;45278;-65
2023/07/30 03:17:38;;;;;;;;;3.00;2.00;;;;;20.46;57.56;100975.34;5037677;28;45497;-65
2023/07/30 03:20:08;;;;;;;;;5.00;1.00;;;;;20.40;57.75;100978.19;5037691;28;45464;-66
2023/07/30 03:22:34;;;;;;;;;2.33;1.67;;;;;20.49;58.16;100988.50;5037706;28;45378;-65
2023/07/30 03:25:06;;;;;;;;;2.00;2.00;;;;;20.47;59.69;100991.22;5038224;28;45451;-68
2023/07/30 03:27:35;;;;;;;;;3.00;1.00;;;;;20.51;59.75;100994.66;5020741;28;46992;-68
2023/07/30 03:30:01;;;;;;;;;1.33;1.33;;;;;20.51;58.48;100992.84;5021168;28;45486;-64
2023/07/30 03:32:26;;;;;;;;;1.67;1.00;;;;;20.49;57.84;100996.50;5037969;28;45393;-66
2023/07/30 03:34:52;;;;;;;;;6.00;2.67;;;;;20.46;58.16;100999.28;5037878;28;45368;-71
2023/07/30 03:37:17;;;;;;;;;1.00;1.00;;;;;20.44;58.17;100996.66;5033049;28;45485;-67
2023/07/30 03:39:43;;;;;;;;;1.00;1.00;;;;;20.41;58.15;101010.06;5030885;28;45484;-66
2023/07/30 03:42:08;;;;;;;;;2.33;1.00;;;;;20.35;58.39;100999.63;5038350;28;45563;-66
2023/07/30 03:44:34;;;;;;;;;2.33;2.33;;;;;20.27;58.39;100985.75;5037545;28;45636;-65
2023/07/30 03:46:59;;;;;;;;;3.00;1.67;;;;;20.41;58.17;101006.56;5037053;28;45312;-65
2023/07/30 03:49:24;;;;;;;;;1.00;1.00;;;;;20.37;58.04;101004.91;5020702;28;45406;-65
2023/07/30 03:51:50;;;;;;;;;2.00;2.00;;;;;20.25;58.91;101004.41;5038612;28;45308;-65
2023/07/30 03:54:16;;;;;;;;;3.00;1.67;;;;;20.16;58.80;100999.38;5037043;28;45407;-65
2023/07/30 03:56:41;;;;;;;;;3.33;1.00;;;;;20.19;58.87;101017.03;5036971;28;45501;-65
2023/07/30 03:59:07;;;;;;;;;2.67;1.33;;;;;20.09;58.61;101005.84;5037079;28;45671;-67
2023/07/30 04:01:33;;;;;;;;;4.33;1.33;;;;;20.15;58.95;101028.72;5038372;28;45461;-65
2023/07/30 04:03:59;;;;;;;;;0.00;0.00;;;;;20.11;58.92;101020.81;5037557;28;45421;-66
2023/07/30 04:06:24;;;;;;;;;1.67;1.67;;;;;20.10;58.70;101029.72;5037458;28;46336;-67
2023/07/30 04:08:50;;;;;;;;;2.00;2.00;;;;;20.04;58.73;101018.41;5038513;28;45466;-67
2023/07/30 04:11:15;;;;;;;;;3.67;2.00;;;;;20.06;58.91;101020.09;5036840;28;45446;-66
2023/07/30 04:13:42;;;;;;;;;1.33;1.00;;;;;20.08;59.25;101023.59;5019579;28;45461;-67
2023/07/30 04:16:14;;;;;;;;;2.00;2.00;;;;;19.96;58.81;101010.69;5018957;28;47856;-65
2023/07/30 04:18:40;;;;;;;;;1.33;1.00;;;;;20.07;58.70;101035.16;5019458;28;45491;-67
2023/07/30 04:21:05;;;;;;;;;5.67;2.00;;;;;20.05;59.08;101030.78;5038550;28;45591;-75
2023/07/30 04:23:31;;;;;;;;;2.00;2.00;;;;;20.05;59.15;101036.09;5038373;28;45516;-72
2023/07/30 04:25:56;;;;;;;;;3.00;0.67;;;;;19.96;58.79;101023.13;5036883;28;45450;-66
2023/07/30 04:28:22;;;;;;;;;3.00;2.00;;;;;20.03;58.76;101035.31;5037781;28;45418;-68
2023/07/30 04:30:47;;;;;;;;;7.00;2.67;;;;;19.97;59.23;101031.03;5037173;28;45367;-66
2023/07/30 04:33:14;;;;;;;;;5.00;2.67;;;;;20.03;59.33;101046.81;5038135;28;45248;-66
2023/07/30 04:35:41;;;;;;;;;4.00;1.00;;;;;19.93;59.39;101037.34;5038775;28;46443;-66
2023/07/30 04:38:07;;;;;;;;;4.00;1.33;;;;;20.00;58.96;101046.00;5034798;28;45501;-66
2023/07/30 04:40:36;;;;;;;;;3.00;2.00;;;;;19.84;59.00;101014.63;5022789;28;45472;-69
2023/07/30 04:43:01;;;;;;;;;2.00;2.00;;;;;20.02;59.24;101052.16;5037280;28;45608;-66
2023/07/30 04:45:28;;;;;;;;;3.67;2.00;;;;;19.70;58.77;101003.56;5035958;28;45722;-67
2023/07/30 04:47:53;;;;;;;;;5.67;2.33;;;;;19.87;58.77;101035.78;5036578;28;45434;-67
2023/07/30 04:50:19;;;;;;;;;6.00;6.00;;;;;19.94;59.28;101056.88;5036364;28;45524;-67
2023/07/30 04:52:44;;;;;;;;;11.00;7.00;;;;;19.98;58.80;101072.66;5037801;28;45335;-66
2023/07/30 04:55:10;;;;;;;;;8.33;6.33;;;;;19.99;59.03;101081.50;5037151;28;45398;-69
2023/07/30 04:57:36;;;;;;;;;7.33;6.67;;;;;19.99;59.07;101082.38;5037020;28;45322;-68
2023/07/30 05:00:02;;;;;;;;;9.67;6.00;;;;;19.83;58.94;101058.03;5036517;28;45490;-68
2023/07/30 05:02:28;;;;;;;;;5.33;2.67;;;;;20.00;58.72;101088.56;5036940;28;45406;-67
2023/07/30 05:04:54;;;;;;;;;4.33;2.67;;;;;20.02;58.80;101086.72;5037715;28;45529;-66
2023/07/30 05:07:19;;;;;;;;;5.00;1.67;;;;;20.04;58.86;101087.53;5036394;28;45891;-67
2023/07/30 05:09:45;;;;;;;;;2.00;2.00;;;;;19.95;58.64;101082.50;5037043;28;45470;-65
2023/07/30 05:12:12;;;;;;;;;2.00;2.00;;;;;19.92;58.91;101076.38;5037070;28;45496;-66
2023/07/30 05:14:37;;;;;;;;;1.67;1.00;;;;;20.01;58.74;101099.16;5036466;28;46497;-67
2023/07/30 05:17:03;;;;;;;;;1.33;1.33;;;;;20.01;59.38;101100.94;5019686;28;45594;-67
2023/07/30 05:19:29;;;;;;;;;1.00;1.00;;;;;19.96;58.69;101093.13;5036617;28;45537;-69
2023/07/30 05:21:55;;;;;;;;;1.00;1.00;;;;;20.01;58.60;101098.28;5036551;28;45608;-67
2023/07/30 05:24:21;;;;;;;;;3.33;1.67;;;;;19.90;59.17;101082.66;5035958;28;46311;-66
2023/07/30 05:26:47;;;;;;;;;2.00;1.00;;;;;19.78;58.99;101057.31;5036320;28;45365;-65
2023/07/30 05:29:12;;;;;;;;;1.00;1.00;;;;;20.10;58.54;101113.94;5036378;28;45607;-66
2023/07/30 05:31:38;;;;;;;;;2.00;1.00;;;;;20.11;58.59;101115.69;5036391;28;45494;-67
2023/07/30 05:34:04;;;;;;;;;2.00;1.00;;;;;20.11;58.51;101108.56;5036028;28;46575;-68
2023/07/30 05:36:30;;;;;;;;;4.33;2.00;;;;;19.92;58.11;101087.00;5036005;28;45357;-69
2023/07/30 05:38:55;;;;;;;;;4.67;2.00;;;;;20.03;58.57;101097.31;5022864;28;45513;-66
2023/07/30 05:41:21;;;;;;;;;2.33;1.00;;;;;20.19;58.05;101116.28;5037726;28;45566;-66
2023/07/30 05:43:48;;;;;;;;;2.00;1.67;;;;;20.22;58.12;101110.91;5038107;28;45687;-66
2023/07/30 05:46:22;;;;;;;;;1.00;1.00;;;;;20.19;57.82;101099.47;5036655;28;45383;-66
2023/07/30 05:48:48;;;;;;;;;4.33;1.00;;;;;20.35;57.67;101122.00;5038027;28;45433;-69
2023/07/30 05:51:13;;;;;;;;;1.00;1.00;;;;;20.23;57.45;101078.03;5040077;28;45446;-66
2023/07/30 05:53:39;;;;;;;;;2.33;2.00;;;;;20.41;57.79;101111.16;5040748;28;45658;-74
2023/07/30 05:56:04;;;;;;;;;2.67;1.00;;;;;20.33;57.50;101084.81;5041464;28;45432;-81
2023/07/30 05:58:30;;;;;;;;;4.67;1.33;;;;;20.51;57.79;101101.94;5041063;28;45283;-73
2023/07/30 06:00:56;;;;;;;;;1.67;1.67;;;;;20.58;57.09;101113.31;5040148;28;45396;-69
2023/07/30 06:03:22;;;;;;;;;5.33;2.67;;;;;20.64;57.05;101107.75;5040430;28;46020;-75
2023/07/30 06:05:47;;;;;;;;;2.33;2.33;;;;;20.70;56.79;101114.69;5023008;28;45673;-71
2023/07/30 06:08:13;;;;;;;;;2.00;2.00;;;;;20.77;56.38;101118.00;5040026;28;45602;-77
2023/07/30 06:10:40;;;;;;;;;9.33;6.00;;;;;20.81;57.96;101122.28;5040450;28;45640;-75
2023/07/30 06:13:09;;;;;;;;;3.67;3.67;;;;;20.88;56.59;101118.47;5039854;28;46497;-75
2023/07/30 06:15:34;;;;;;;;;4.33;2.00;;;;;20.88;57.40;101107.84;5022333;28;45618;-69
2023/07/30 06:18:03;;;;;;;;;3.00;2.00;;;;;21.10;57.55;101121.28;5039072;28;45471;-72
2023/07/30 06:20:29;;;;;;;;;4.00;2.67;;;;;21.21;55.46;101123.53;5027293;28;45533;-71
2023/07/30 06:22:55;;;;;;;;;2.33;2.00;;;;;21.22;55.40;101125.31;5038710;28;45976;-73
2023/07/30 06:25:20;;;;;;;;;2.33;2.00;;;;;21.32;55.25;101129.34;5038703;28;45315;-74
2023/07/30 06:27:46;;;;;;;;;5.00;1.00;;;;;21.43;54.92;101137.88;5038752;28;45421;-68
2023/07/30 06:30:20;;;;;;;;;1.00;1.00;;;;;21.52;54.56;101140.19;5039559;28;45320;-68
2023/07/30 06:32:46;;;;;;;;;3.00;2.00;;;;;21.58;54.35;101144.41;5020326;28;47717;-67
2023/07/30 06:35:13;;;;;;;;;2.00;1.33;;;;;21.62;54.51;101142.50;5038933;28;45581;-68
2023/07/30 06:37:38;;;;;;;;;3.33;1.67;;;;;21.59;53.90;101140.81;5041085;28;45506;-72
2023/07/30 06:40:06;;;;;;;;;1.33;1.33;;;;;21.65;54.15;101135.25;5039100;28;45446;-70
2023/07/30 06:42:31;;;;;;;;;6.00;3.00;;;;;21.83;54.10;101144.38;5038618;28;46277;-67
2023/07/30 06:44:57;;;;;;;;;2.33;2.33;;;;;21.92;53.61;101156.47;5038222;28;45407;-67
2023/07/30 06:47:22;;;;;;;;;3.33;2.00;;;;;21.94;52.94;101158.13;5038868;28;45596;-67
2023/07/30 06:49:48;;;;;;;;;1.67;1.00;;;;;22.00;53.04;101151.72;5038465;28;45444;-67
2023/07/30 06:52:14;;;;;;;;;4.00;3.00;;;;;21.87;53.11;101166.44;5039412;28;46117;-68
2023/07/30 06:54:39;;;;;;;;;3.00;1.67;;;;;21.46;53.54;101124.41;5038348;28;45683;-67
2023/07/30 06:57:05;;;;;;;;;3.00;3.00;;;;;21.74;54.12;101180.25;5038088;28;45470;-67
2023/07/30 06:59:31;;;;;;;;;2.00;2.00;;;;;21.69;53.90;101157.31;5037178;28;45398;-68
2023/07/30 07:01:57;;;;;;;;;4.00;2.00;;;;;21.72;53.80;101171.44;5038022;28;45633;-67
2023/07/30 07:04:22;;;;;;;;;3.00;2.00;;;;;21.80;53.34;101176.47;5038577;28;45483;-67
2023/07/30 07:06:54;;;;;;;;;2.00;1.00;;;;;21.85;53.64;101176.28;5019783;28;45719;-68
2023/07/30 07:09:20;;;;;;;;;2.00;2.00;;;;;22.01;53.53;101172.13;5026694;28;45484;-68
2023/07/30 07:11:46;;;;;;;;;2.33;2.00;;;;;22.08;53.92;101175.41;5036232;28;46520;-67
2023/07/30 07:14:11;;;;;;;;;1.00;1.00;;;;;22.19;53.89;101178.53;5034549;28;45361;-67
2023/07/30 07:16:37;;;;;;;;;2.33;2.33;;;;;22.24;52.81;101176.59;5035574;28;45823;-67
2023/07/30 07:19:02;;;;;;;;;4.00;2.00;;;;;22.22;52.40;101176.63;5035430;28;45503;-66
2023/07/30 07:21:28;;;;;;;;;1.67;1.00;;;;;22.23;53.02;101174.84;5035975;28;45407;-67
2023/07/30 07:24:00;;;;;;;;;3.33;2.00;;;;;22.20;51.73;101149.16;5036974;28;45471;-67
2023/07/30 07:26:25;;;;;;;;;3.33;2.00;;;;;22.28;51.30;101153.31;5027906;28;45395;-68
2023/07/30 07:28:55;;;;;;;;;3.33;2.00;;;;;22.47;51.19;101174.78;5031912;28;45458;-66
2023/07/30 07:31:20;;;;;;;;;2.67;2.00;;;;;22.44;51.33;101162.44;5029747;28;46611;-68
2023/07/30 07:33:46;;;;;;;;;1.00;1.00;;;;;22.51;50.43;101174.59;5030015;28;45422;-70
2023/07/30 07:36:14;;;;;;;;;4.67;3.33;;;;;22.39;50.97;101149.28;5035061;28;45970;-73
2023/07/30 07:38:39;;;;;;;;;3.67;2.00;;;;;22.62;50.34;101180.38;5037336;28;45469;-68
2023/07/30 07:41:05;;;;;;;;;3.00;3.00;;;;;22.66;50.24;101178.47;5034045;28;46164;-66
2023/07/30 07:43:30;;;;;;;;;4.50;1.50;;;;;22.67;50.09;101184.66;5032808;28;46055;-71
2023/07/30 07:45:56;;;;;;;;;3.00;3.00;;;;;22.54;50.80;101169.16;5037106;28;45338;-67
2023/07/30 07:48:21;;;;;;;;;5.00;3.00;;;;;22.56;50.19;101161.94;5018464;28;45860;-67
2023/07/30 07:50:47;;;;;;;;;2.33;1.00;;;;;22.71;49.74;101179.13;5028127;28;45793;-68
2023/07/30 07:53:13;;;;;;;;;3.67;2.00;;;;;22.77;49.98;101175.31;5028140;28;45708;-69
2023/07/30 07:55:38;;;;;;;;;3.00;2.33;;;;;22.82;50.20;101181.34;5020472;28;45461;-68
2023/07/30 07:58:04;;;;;;;;;2.67;2.67;;;;;22.89;50.20;101189.97;5026241;28;45447;-70
2023/07/30 08:00:29;;;;;;;;;3.33;2.00;;;;;22.88;50.10;101191.78;5016396;28;46322;-71
2023/07/30 08:02:55;;;;;;;;;3.00;2.00;;;;;22.88;50.11;101194.44;5025312;28;45483;-70
2023/07/30 08:05:21;;;;;;;;;2.00;2.00;;;;;22.69;48.85;101174.78;5032892;28;45584;-68
2023/07/30 08:07:47;;;;;;;;;3.00;3.00;;;;;22.46;49.66;101138.34;5008241;28;45568;-68
2023/07/30 08:10:14;;;;;;;;;3.00;2.25;;;;;22.82;49.38;101181.34;5025846;28;46711;-68
2023/07/30 08:12:39;;;;;;;;;3.33;2.00;;;;;22.85;49.68;101194.56;5029734;28;45735;-68
2023/07/30 08:15:06;;;;;;;;;2.33;1.33;;;;;22.73;49.33;101171.03;5026415;28;45522;-68
2023/07/30 08:17:38;;;;;;;;;2.00;2.00;;;;;22.92;49.12;101208.53;5032673;28;45425;-69
2023/07/30 08:20:04;;;;;;;;;5.00;3.00;;;;;22.92;48.37;101212.09;5008731;28;48801;-69
2023/07/30 08:22:29;;;;;;;;;2.00;2.00;;;;;23.14;48.44;101205.88;5026089;28;45812;-68
2023/07/30 08:24:55;;;;;;;;;2.00;2.00;;;;;23.24;48.48;101208.06;5025141;28;45930;-69
2023/07/30 08:27:24;;;;;;;;;2.67;1.00;;;;;22.98;48.66;101174.44;5035043;28;45406;-68
2023/07/30 08:29:49;;;;;;;;;3.33;2.00;;;;;23.18;48.49;101210.13;5028204;28;45305;-72
2023/07/30 08:32:15;;;;;;;;;3.00;2.33;;;;;23.26;47.52;101216.03;5032243;28;45399;-68
2023/07/30 08:34:41;;;;;;;;;2.33;2.33;;;;;23.19;47.40;101210.06;5024047;28;45805;-70
2023/07/30 08:37:07;;;;;;;;;4.00;2.33;;;;;23.11;47.16;101201.50;5024584;28;45577;-69
2023/07/30 08:39:32;;;;;;;;;2.00;1.75;;;;;23.25;47.52;101219.59;5023594;28;45498;-69
2023/07/30 08:41:58;;;;;;;;;3.67;2.00;;;;;23.24;47.13;101210.72;5031396;28;45521;-69
2023/07/30 08:44:23;;;;;;;;;2.67;2.00;;;;;23.31;46.99;101210.47;5034276;28;45440;-75
2023/07/30 08:46:49;;;;;;;;;2.75;1.00;;;;;23.27;47.54;101207.91;5035209;28;45462;-74
2023/07/30 08:49:15;;;;;;;;;3.00;3.00;;;;;23.31;47.75;101213.16;5029744;28;45572;-72
2023/07/30 08:51:42;;;;;;;;;5.25;3.75;;;;;23.26;46.79;101202.66;5028950;28;45597;-73
2023/07/30 08:54:09;;;;;;;;;5.67;3.00;;;;;23.31;46.94;101214.00;5032162;28;46092;-69
2023/07/30 08:56:35;;;;;;;;;4.00;3.00;;;;;23.36;46.79;101222.69;5029124;28;45294;-66
2023/07/30 08:59:03;;;;;;;;;3.75;2.50;;;;;23.35;46.77;101230.75;5034691;28;45425;-65
2023/07/30 09:01:39;;;;;;;;;3.00;2.00;;;;;23.36;46.11;101221.81;5036147;28;45541;-72
2023/07/30 09:04:06;;;;;;;;;3.00;3.00;;;;;23.18;47.28;101186.97;5017115;28;45427;-67
2023/07/30 09:06:32;;;;;;;;;5.25;2.50;;;;;23.36;46.05;101205.78;5035129;28;45522;-70
2023/07/30 09:08:58;;;;;;;;;6.00;3.00;;;;;23.43;46.38;101207.25;5034450;28;46525;-65
2023/07/30 09:11:29;;;;;;;;;3.50;2.00;;;;;23.55;45.52;101213.88;5033524;28;45351;-68
2023/07/30 09:13:58;;;;;;;;;3.67;2.33;;;;;23.62;45.34;101215.31;5033862;28;45837;-65
2023/07/30 09:16:26;;;;;;;;;3.33;3.00;;;;;23.61;45.21;101201.09;5033404;28;45472;-75
2023/07/30 09:18:57;;;;;;;;;3.50;2.75;;;;;23.76;45.35;101214.75;5033031;28;46104;-65
2023/07/30 09:21:34;;;;;;;;;4.25;3.00;;;;;23.76;45.20;101209.41;5032697;28;45544;-74
2023/07/30 09:24:05;;;;;;;;;3.00;3.00;;;;;23.74;44.94;101212.13;5018135;28;45584;-67
2023/07/30 09:26:41;;;;;;;;;3.00;3.00;;;;;23.65;44.71;101208.03;5036117;28;45636;-66
2023/07/30 09:29:10;;;;;;;;;2.00;2.00;;;;;23.54;45.50;101215.69;5033093;28;46175;-67
2023/07/30 09:31:54;;;;;;;;;2.00;2.00;;;;;23.53;45.73;101218.41;5032782;28;45981;-65
2023/07/30 09:34:22;;;;;;;;;3.75;2.50;;;;;23.56;46.67;101204.91;5036176;28;45610;-73
2023/07/30 09:36:51;;;;;;;;;2.50;2.00;;;;;23.66;45.67;101207.09;5035790;28;45514;-69
2023/07/30 09:39:18;;;;;;;;;2.50;2.50;;;;;23.77;45.13;101209.31;5036088;28;45815;-69
2023/07/30 09:41:44;;;;;;;;;3.00;3.00;;;;;23.83;45.63;101179.63;5031843;28;45610;-70
2023/07/30 09:44:13;;;;;;;;;4.25;2.75;;;;;23.68;44.26;101159.78;5030644;28;45560;-67
2023/07/30 09:46:48;;;;;;;;;6.00;2.00;;;;;23.87;44.36;101207.97;5035471;28;45406;-64
2023/07/30 09:49:15;;;;;;;;;3.50;2.00;;;;;23.93;44.17;101206.81;5021843;28;46372;-67
2023/07/30 09:51:40;;;;;;;;;3.33;2.00;;;;;23.75;44.26;101156.81;5022814;28;45428;-66
2023/07/30 09:54:12;;;;;;;;;2.00;2.00;;;;;24.20;43.45;101219.81;5027891;28;45481;-69
2023/07/30 09:56:39;;;;;;;;;1.25;1.25;;;;;24.06;43.19;101161.59;5024943;28;45442;-69
2023/07/30 09:59:06;;;;;;;;;2.25;2.25;;;;;24.47;43.25;101212.31;5030252;28;46177;-69
2023/07/30 10:01:36;;;;;;;;;3.25;3.25;;;;;24.38;42.76;101205.56;5022698;28;45381;-69
2023/07/30 10:04:08;;;;;;;;;2.00;2.00;;;;;24.39;42.74;101199.25;5028444;28;45853;-69
2023/07/30 10:06:40;;;;;;;;;3.25;1.25;;;;;24.47;42.77;101202.47;5025458;28;45522;-68
2023/07/30 10:09:10;;;;;;;;;4.75;2.00;;;;;24.62;41.75;101208.03;5025359;28;46190;-68
2023/07/30 10:11:38;;;;;;;;;2.25;2.25;;;;;24.73;42.93;101217.25;5025597;28;46374;-70
2023/07/30 10:14:04;;;;;;;;;32.33;27.00;;;;;24.63;42.56;101220.47;5029562;28;45478;-68
2023/07/30 10:16:30;;;;;;;;;8.33;8.00;;;;;24.48;42.24;101208.69;5029881;28;45728;-68
2023/07/30 10:18:58;;;;;;;;;6.00;3.00;;;;;24.46;43.73;101227.50;5026163;28;45959;-68
2023/07/30 10:21:25;;;;;;;;;5.25;5.00;;;;;24.33;43.54;101215.63;5034526;28;45509;-68
2023/07/30 10:24:04;;;;;;;;;3.00;3.00;;;;;24.26;43.22;101188.28;5023589;28;45585;-69
2023/07/30 10:26:33;;;;;;;;;4.00;2.00;;;;;24.60;44.42;101228.66;5026276;28;45619;-69
2023/07/30 10:29:20;;;;;;;;;2.75;2.75;;;;;24.72;43.59;101228.91;5024783;28;45767;-67
2023/07/30 10:32:22;;;;;;;;;3.00;3.00;;;;;24.76;41.49;101232.31;5031363;28;45422;-66
2023/07/30 10:34:49;;;;;;;;;2.00;1.00;;;;;24.65;41.28;101226.63;5028241;28;45630;-67
2023/07/30 10:37:20;;;;;;;;;2.25;2.25;;;;;24.58;41.04;101230.53;5026543;28;45403;-66
2023/07/30 10:39:48;;;;;;;;;2.75;2.75;;;;;24.46;41.54;101215.91;5030020;28;45532;-65
2023/07/30 10:42:14;;;;;;;;;2.75;2.75;;;;;24.16;41.86;101164.72;5028053;28;45423;-66
2023/07/30 10:44:44;;;;;;;;;2.00;2.00;;;;;24.33;42.24;101218.31;5024285;28;45466;-65
2023/07/30 10:47:11;;;;;;;;;2.25;2.00;;;;;24.37;41.82;101221.69;5029966;28;45554;-68
2023/07/30 10:49:48;;;;;;;;;2.00;2.00;;;;;24.59;43.42;101233.16;5012400;28;48370;-68
2023/07/30 10:52:13;;;;;;;;;2.75;2.25;;;;;24.89;43.96;101236.13;5025823;28;45687;-68
2023/07/30 10:54:39;;;;;;;;;2.75;2.50;;;;;25.12;41.82;101224.22;5027028;28;46088;-70
2023/07/30 10:57:05;;;;;;;;;3.00;3.00;;;;;25.29;40.23;101231.44;5030524;28;45451;-64
2023/07/30 10:59:37;;;;;;;;;2.50;2.50;;;;;25.29;40.14;101204.63;5027378;28;45947;-65
2023/07/30 11:02:03;;;;;;;;;3.50;2.25;;;;;25.48;39.63;101227.78;5031821;28;45600;-65
2023/07/30 11:04:29;;;;;;;;;1.50;1.50;;;;;25.49;38.61;101229.53;5028790;28;45338;-65
2023/07/30 11:06:54;;;;;;;;;1.00;1.00;;;;;25.47;38.99;101216.22;5031213;28;45566;-67
2023/07/30 11:09:25;;;;;;;;;3.50;3.50;;;;;25.61;39.71;101228.88;5032526;28;45564;-69
2023/07/30 11:11:52;;;;;;;;;3.25;3.25;;;;;25.58;39.80;101229.91;5009141;28;45449;-67
2023/07/30 11:14:20;;;;;;;;;2.50;2.50;;;;;25.64;38.88;101235.91;5027595;28;45283;-68
2023/07/30 11:16:54;;;;;;;;;4.00;2.75;;;;;25.65;37.99;101225.09;5014860;28;45547;-68
2023/07/30 11:19:20;;;;;;;;;2.50;2.50;;;;;25.62;39.02;101225.25;5018261;28;47752;-72
2023/07/30 11:21:48;;;;;;;;;2.00;2.00;;;;;25.29;39.42;101209.13;5036630;28;45523;-72